createdAt,value
2018-05-25T00:00:33.072Z,1070.23
2018-05-25T00:01:33.055Z,1069.84
2018-05-25T00:02:33.066Z,1070.01
2018-05-25T00:03:33.041Z,1070.22
2018-05-25T00:04:33.098Z,1070.11
2018-05-25T00:05:33.082Z,1070.22
2018-05-25T00:06:33.039Z,1070.15
2018-05-25T00:07:33.024Z,1070.25
2018-05-25T00:08:33.027Z,1070.2
2018-05-25T00:09:33.071Z,1070.31
2018-05-25T00:10:33.085Z,1070.16
2018-05-25T00:11:33.356Z,1070.29
2018-05-25T00:12:33.071Z,1070.35
2018-05-25T00:13:34.056Z,1070.36
2018-05-25T00:14:33.047Z,1070.13
2018-05-25T00:15:33.785Z,1070.26
2018-05-25T00:16:33.059Z,1070.16
2018-05-25T00:17:33.056Z,1070.12
2018-05-25T00:18:33.093Z,1070.26
2018-05-25T00:19:33.647Z,1070.34
2018-05-25T00:20:33.122Z,1070.26
2018-05-25T00:21:33.086Z,1070.37
2018-05-25T00:22:33.071Z,1070.38
2018-05-25T00:23:33.103Z,1070.39
2018-05-25T00:24:33.102Z,1070.41
2018-05-25T00:25:33.095Z,1070.28
2018-05-25T00:26:33.115Z,1070.72
2018-05-25T00:27:33.072Z,1070.5
2018-05-25T00:28:33.081Z,1070.4
2018-05-25T00:29:33.108Z,1070.48
2018-05-25T00:30:33.089Z,1070.52
2018-05-25T00:31:33.148Z,1070.47
2018-05-25T00:32:33.073Z,1070.61
2018-05-25T00:33:33.086Z,1070.61
2018-05-25T00:34:34.777Z,1070.49
2018-05-25T00:35:33.650Z,1070.59
2018-05-25T00:36:33.708Z,1070.45
2018-05-25T00:37:33.084Z,1070.55
2018-05-25T00:38:33.112Z,1070.69
2018-05-25T00:39:33.105Z,1070.46
2018-05-25T00:40:33.112Z,1070.5
2018-05-25T00:41:33.133Z,1070.54
2018-05-25T00:42:33.101Z,1070.51
2018-05-25T00:43:34.145Z,1070.53
2018-05-25T00:44:33.095Z,1070.45
2018-05-25T00:45:33.135Z,1070.86
2018-05-25T00:46:33.100Z,1070.39
2018-05-25T00:47:33.354Z,1070.62
2018-05-25T00:48:33.122Z,1070.58
2018-05-25T00:49:35.119Z,1070.78
2018-05-25T00:50:33.113Z,1070.68
2018-05-25T00:51:33.156Z,1070.71
2018-05-25T00:52:33.139Z,1070.68
2018-05-25T00:53:33.116Z,1070.64
2018-05-25T00:54:33.120Z,1070.71
2018-05-25T00:55:33.144Z,1070.53
2018-05-25T00:56:33.184Z,1070.7
2018-05-25T00:57:33.143Z,1070.54
2018-05-25T00:58:33.151Z,1070.82
2018-05-25T00:59:33.174Z,1070.73
2018-05-25T01:00:33.133Z,1070.78
2018-05-25T01:01:33.184Z,1070.69
2018-05-25T01:02:33.198Z,1070.86
2018-05-25T01:03:33.171Z,1070.76
2018-05-25T01:04:33.203Z,1070.9
2018-05-25T01:05:33.164Z,1071.07
2018-05-25T01:06:33.174Z,1070.88
2018-05-25T01:07:33.199Z,1070.91
2018-05-25T01:08:33.191Z,1070.89
2018-05-25T01:09:33.198Z,1070.92
2018-05-25T01:10:34.550Z,1070.97
2018-05-25T01:11:33.146Z,1070.92
2018-05-25T01:12:33.179Z,1070.96
2018-05-25T01:13:33.188Z,1070.99
2018-05-25T01:14:33.884Z,1070.97
2018-05-25T01:15:33.172Z,1071.02
2018-05-25T01:16:33.185Z,1070.96
2018-05-25T01:17:33.177Z,1070.93
2018-05-25T01:18:33.729Z,1070.89
2018-05-25T01:19:33.209Z,1071.04
2018-05-25T01:20:33.211Z,1070.98
2018-05-25T01:21:33.187Z,1071.03
2018-05-25T01:22:33.199Z,1071.03
2018-05-25T01:23:33.194Z,1071.14
2018-05-25T01:24:33.188Z,1071.02
2018-05-25T01:25:33.196Z,1070.97
2018-05-25T01:26:33.208Z,1070.95
2018-05-25T01:27:33.908Z,1071.1
2018-05-25T01:28:33.216Z,1070.97
2018-05-25T01:29:33.219Z,1071.09
2018-05-25T01:30:33.174Z,1071.07
2018-05-25T01:31:33.233Z,1071.15
2018-05-25T01:32:33.205Z,1071.16
2018-05-25T01:33:33.208Z,1071.14
2018-05-25T01:34:33.200Z,1071.19
2018-05-25T01:35:33.201Z,1071.12
2018-05-25T01:36:33.207Z,1071.02
2018-05-25T01:37:33.219Z,1071.02
2018-05-25T01:38:33.196Z,1071.11
2018-05-25T01:39:33.225Z,1071.31
2018-05-25T01:40:33.198Z,1071.1
2018-05-25T01:41:33.881Z,1071.11
2018-05-25T01:42:33.200Z,1071.26
2018-05-25T01:43:33.217Z,1071.15
2018-05-25T01:44:33.241Z,1071.08
2018-05-25T01:45:33.245Z,1071.2
2018-05-25T01:46:33.563Z,1071.06
2018-05-25T01:47:33.296Z,1071.2
2018-05-25T01:48:33.223Z,1071.24
2018-05-25T01:53:03.341Z,1071.53
2018-05-25T01:54:03.298Z,1071.46
2018-05-25T01:55:03.304Z,1071.4
2018-05-25T01:56:03.311Z,1071.55
2018-05-25T01:57:03.280Z,1071.32
2018-05-25T01:58:03.279Z,1071.41
2018-05-25T01:59:03.308Z,1071.35
2018-05-25T02:00:03.283Z,1071.16
2018-05-25T02:01:03.296Z,1071.46
2018-05-25T02:02:03.299Z,1071.4
2018-05-25T02:03:03.284Z,1071.38
2018-05-25T02:04:03.831Z,1071.44
2018-05-25T02:05:03.267Z,1071.32
2018-05-25T02:06:03.278Z,1071.35
2018-05-25T02:07:03.303Z,1071.43
2018-05-25T02:08:03.271Z,1071.67
2018-05-25T02:09:03.279Z,1071.55
2018-05-25T02:10:03.323Z,1071.47
2018-05-25T02:11:03.333Z,1071.63
2018-05-25T02:12:03.291Z,1071.58
2018-05-25T02:13:03.296Z,1071.52
2018-05-25T02:14:03.314Z,1071.82
2018-05-25T02:15:03.645Z,1071.53
2018-05-25T02:16:03.316Z,1071.65
2018-05-25T02:17:03.310Z,1071.7
2018-05-25T02:18:03.658Z,1071.64
2018-05-25T02:19:03.336Z,1071.67
2018-05-25T02:20:03.330Z,1071.54
2018-05-25T02:21:03.327Z,1071.67
2018-05-25T02:22:03.364Z,1071.69
2018-05-25T02:23:03.335Z,1071.73
2018-05-25T02:24:03.294Z,1071.81
2018-05-25T02:25:03.336Z,1071.8
2018-05-25T02:26:03.312Z,1071.67
2018-05-25T02:27:03.330Z,1072.06
2018-05-25T02:28:03.337Z,1071.83
2018-05-25T02:29:03.321Z,1071.77
2018-05-25T02:30:03.357Z,1071.9
2018-05-25T02:31:03.332Z,1071.92
2018-05-25T02:32:03.322Z,1071.82
2018-05-25T02:33:03.371Z,1071.86
2018-05-25T02:39:42.200Z,1072.07
2018-05-25T02:40:42.205Z,1071.98
2018-05-25T02:41:42.237Z,1071.92
2018-05-25T02:42:43.078Z,1071.86
2018-05-25T02:43:42.228Z,1071.81
2018-05-25T02:44:42.232Z,1071.92
2018-05-25T02:45:42.186Z,1071.81
2018-05-25T02:46:42.236Z,1071.82
2018-05-25T02:47:42.196Z,1071.83
2018-05-25T02:48:42.919Z,1072.04
2018-05-25T02:49:42.187Z,1071.94
2018-05-25T02:50:42.194Z,1071.85
2018-05-25T02:51:42.228Z,1071.92
2018-05-25T02:52:42.207Z,1071.77
2018-05-25T02:53:42.232Z,1072
2018-05-25T02:54:42.191Z,1071.94
2018-05-25T02:55:42.228Z,1071.99
2018-05-25T02:56:42.238Z,1071.75
2018-05-25T02:57:42.207Z,1072.13
2018-05-25T02:58:42.223Z,1071.99
2018-05-25T02:59:42.204Z,1071.86
2018-05-25T03:00:42.213Z,1071.87
2018-05-25T03:01:42.188Z,1072.13
2018-05-25T03:02:42.238Z,1071.9
2018-05-25T03:03:42.216Z,1072
2018-05-25T03:04:42.258Z,1072.09
